Hernando Beach, Florida
Current Conditions -  °F | °C
As of 10:53 PM on Wednesday 28 Jan 2015 (Local Time) from KBKV Reporting Station
Light Rain Light Rain  
Wind Chill: 39°   Ceiling: Unl
Heat Index: 43°   Visibility: 10mi
Dew Point: 38°   Wind: 6mph
Humidity: 82%   Direction: 60°ENE
Pressure: 30.31"   Gusts: NA
Location:  28.4982°N, 82.633°W
Report Text: KBKV 290353Z AUTO 06005KT 10SM -RA CLR 06/03 A3031 RMK AO2 RAB47 SLP262 P0000 T00610033
Loading
Personal Weather Stations






























Interactive Weather Map New forecast layout! Learn more

10-Day Weather Forecast

Advertisements
Track Severe Weather on mobile